Time,TemperatureF,DewpointF,PressureIn,WindDirection,WindDirectionDegrees,WindSpeedMPH,WindSpeedGustMPH,Humidity,HourlyPrecipIn,Conditions,Clouds,dailyrainin,SoftwareType,DateUTC
2013-06-05 00:00:00,63.1,48.0,30.10,ESE,112,5.0,13.0,59,0.00,,,0.00,weatherlink.com 1.10,2013-06-05 04:00:00,
2013-06-05 00:17:00,62.7,48.0,30.11,East,96,7.0,13.0,60,0.00,,,0.00,weatherlink.com 1.10,2013-06-05 04:17:00,
2013-06-05 00:31:00,62.3,48.0,30.10,ESE,103,5.0,10.0,61,0.00,,,0.00,weatherlink.com 1.10,2013-06-05 04:31:00,
2013-06-05 00:47:00,61.9,48.0,30.10,East,98,6.0,8.0,61,0.00,,,0.00,weatherlink.com 1.10,2013-06-05 04:47:00,
2013-06-05 01:02:00,61.6,48.0,30.10,East,97,6.0,8.0,62,0.00,,,0.00,weatherlink.com 1.10,2013-06-05 05:02:00,
2013-06-05 01:17:00,61.3,48.0,30.10,ESE,104,2.0,9.0,63,0.00,,,0.00,weatherlink.com 1.10,2013-06-05 05:17:00,
2013-06-05 01:32:00,60.9,48.0,30.10,East,91,5.0,7.0,63,0.00,,,0.00,weatherlink.com 1.10,2013-06-05 05:32:00,
2013-06-05 01:47:00,60.5,48.0,30.10,East,101,5.0,7.0,64,0.00,,,0.00,weatherlink.com 1.10,2013-06-05 05:47:00,
2013-06-05 02:02:00,60.2,48.0,30.09,ESE,109,5.0,8.0,65,0.00,,,0.00,weatherlink.com 1.10,2013-06-05 06:02:00,
2013-06-05 02:18:00,59.9,48.0,30.09,East,95,5.0,8.0,66,0.00,,,0.00,weatherlink.com 1.10,2013-06-05 06:18:00,
2013-06-05 02:33:00,59.8,48.0,30.09,East,94,2.0,9.0,65,0.00,,,0.00,weatherlink.com 1.10,2013-06-05 06:33:00,
2013-06-05 02:48:00,59.5,48.0,30.09,East,97,3.0,8.0,66,0.00,,,0.00,weatherlink.com 1.10,2013-06-05 06:48:00,
2013-06-05 03:03:00,59.1,48.0,30.09,East,100,5.0,7.0,67,0.00,,,0.00,weatherlink.com 1.10,2013-06-05 07:03:00,
2013-06-05 03:18:00,58.6,48.0,30.08,East,79,7.0,7.0,68,0.00,,,0.00,weatherlink.com 1.10,2013-06-05 07:18:00,
2013-06-05 03:34:00,58.2,48.0,30.07,ESE,105,4.0,8.0,68,0.00,,,0.00,weatherlink.com 1.10,2013-06-05 07:34:00,
2013-06-05 03:52:00,57.9,48.0,30.08,East,81,5.0,8.0,69,0.00,,,0.00,weatherlink.com 1.10,2013-06-05 07:52:00,
2013-06-05 04:04:00,57.7,48.0,30.08,East,95,3.0,8.0,69,0.00,,,0.00,weatherlink.com 1.10,2013-06-05 08:04:00,
2013-06-05 04:20:00,57.3,48.0,30.08,East,92,3.0,7.0,71,0.00,,,0.00,weatherlink.com 1.10,2013-06-05 08:20:00,
2013-06-05 04:36:00,57.1,47.0,30.08,East,98,5.0,8.0,70,0.00,,,0.00,weatherlink.com 1.10,2013-06-05 08:36:00,
2013-06-05 04:51:00,56.9,48.0,30.07,East,86,5.0,9.0,71,0.00,,,0.00,weatherlink.com 1.10,2013-06-05 08:51:00,
2013-06-05 05:05:00,56.5,47.0,30.08,East,83,5.0,8.0,71,0.00,,,0.00,weatherlink.com 1.10,2013-06-05 09:05:00,
2013-06-05 05:37:00,55.4,47.0,30.07,ESE,102,3.0,7.0,73,0.00,,,0.00,weatherlink.com 1.10,2013-06-05 09:37:00,
2013-06-05 05:52:00,55.4,48.0,30.08,East,81,3.0,5.0,75,0.00,,,0.00,weatherlink.com 1.10,2013-06-05 09:52:00,
2013-06-05 06:07:00,54.8,47.0,30.08,East,86,2.0,6.0,75,0.00,,,0.00,weatherlink.com 1.10,2013-06-05 10:07:00,
2013-06-05 06:22:00,54.3,47.0,30.08,East,80,2.0,4.0,76,0.00,,,0.00,weatherlink.com 1.10,2013-06-05 10:22:00,
2013-06-05 06:37:00,54.0,47.0,30.09,East,79,2.0,4.0,77,0.00,,,0.00,weatherlink.com 1.10,2013-06-05 10:37:00,
2013-06-05 06:52:00,54.3,47.0,30.09,ENE,78,2.0,4.0,76,0.00,,,0.00,weatherlink.com 1.10,2013-06-05 10:52:00,
2013-06-05 07:07:00,55.3,47.0,30.10,ENE,61,2.0,8.0,73,0.00,,,0.00,weatherlink.com 1.10,2013-06-05 11:07:00,
2013-06-05 07:23:00,56.4,48.0,30.11,NE,38,3.0,8.0,73,0.00,,,0.00,weatherlink.com 1.10,2013-06-05 11:23:00,
2013-06-05 07:38:00,56.9,49.0,30.10,ENE,63,7.0,10.0,74,0.00,,,0.00,weatherlink.com 1.10,2013-06-05 11:38:00,
2013-06-05 07:53:00,57.3,49.0,30.10,ENE,77,5.0,9.0,74,0.00,,,0.00,weatherlink.com 1.10,2013-06-05 11:53:00,
2013-06-05 08:08:00,58.0,49.0,30.10,East,92,8.0,11.0,73,0.00,,,0.00,weatherlink.com 1.10,2013-06-05 12:08:00,
2013-06-05 08:24:00,59.1,50.0,30.09,ENE,78,8.0,11.0,72,0.00,,,0.00,weatherlink.com 1.10,2013-06-05 12:24:00,
2013-06-05 08:39:00,59.3,49.0,30.09,East,90,7.0,11.0,69,0.00,,,0.00,weatherlink.com 1.10,2013-06-05 12:39:00,
2013-06-05 08:54:00,59.3,50.0,30.08,East,96,6.0,11.0,71,0.00,,,0.00,weatherlink.com 1.10,2013-06-05 12:54:00,
2013-06-05 09:09:00,61.0,51.0,30.07,ENE,77,4.0,12.0,69,0.00,,,0.00,weatherlink.com 1.10,2013-06-05 13:09:00,
2013-06-05 09:25:00,62.4,52.0,30.08,East,85,6.0,11.0,68,0.00,,,0.00,weatherlink.com 1.10,2013-06-05 13:25:00,
2013-06-05 09:40:00,63.6,52.0,30.07,East,92,7.0,12.0,67,0.00,,,0.00,weatherlink.com 1.10,2013-06-05 13:40:00,
2013-06-05 09:55:00,64.8,52.0,30.07,East,87,8.0,12.0,64,0.00,,,0.00,weatherlink.com 1.10,2013-06-05 13:55:00,
2013-06-05 10:12:00,66.1,53.0,30.06,East,87,6.0,13.0,64,0.00,,,0.00,weatherlink.com 1.10,2013-06-05 14:12:00,
2013-06-05 10:27:00,67.0,53.0,30.05,East,84,8.0,13.0,62,0.00,,,0.00,weatherlink.com 1.10,2013-06-05 14:27:00,
2013-06-05 10:42:00,67.9,55.0,30.04,East,97,8.0,12.0,64,0.00,,,0.00,weatherlink.com 1.10,2013-06-05 14:42:00,
2013-06-05 10:57:00,68.3,55.0,30.04,SE,136,8.0,11.0,62,0.00,,,0.00,weatherlink.com 1.10,2013-06-05 14:57:00,
2013-06-05 11:12:00,69.5,56.0,30.03,ENE,73,5.0,11.0,63,0.00,,,0.00,weatherlink.com 1.10,2013-06-05 15:12:00,
2013-06-05 11:27:00,70.8,57.0,30.04,ENE,64,4.0,11.0,62,0.00,,,0.00,weatherlink.com 1.10,2013-06-05 15:27:00,
2013-06-05 11:42:00,70.5,56.0,30.03,East,88,8.0,11.0,61,0.00,,,0.00,weatherlink.com 1.10,2013-06-05 15:42:00,
2013-06-05 11:59:00,71.9,57.0,30.03,East,84,6.0,10.0,60,0.00,,,0.00,weatherlink.com 1.10,2013-06-05 15:59:00,
2013-06-05 12:13:00,72.7,56.0,30.02,ENE,78,7.0,14.0,56,0.00,,,0.00,weatherlink.com 1.10,2013-06-05 16:13:00,
2013-06-05 12:28:00,73.0,56.0,30.01,SE,146,4.0,9.0,56,0.00,,,0.00,weatherlink.com 1.10,2013-06-05 16:28:00,
2013-06-05 12:43:00,74.0,57.0,30.02,East,80,3.0,10.0,56,0.00,,,0.00,weatherlink.com 1.10,2013-06-05 16:43:00,
2013-06-05 12:59:00,74.8,55.0,30.02,East,82,0.0,11.0,51,0.00,,,0.00,weatherlink.com 1.10,2013-06-05 16:59:00,
2013-06-05 13:14:00,75.0,56.0,30.01,SE,136,3.0,9.0,51,0.00,,,0.00,weatherlink.com 1.10,2013-06-05 17:14:00,
2013-06-05 13:29:00,75.0,56.0,30.01,East,87,10.0,11.0,52,0.00,,,0.00,weatherlink.com 1.10,2013-06-05 17:29:00,
2013-06-05 13:45:00,76.1,58.0,30.01,ENE,68,4.0,10.0,54,0.00,,,0.00,weatherlink.com 1.10,2013-06-05 17:45:00,
2013-06-05 14:00:00,76.3,56.0,30.00,ENE,73,7.0,11.0,50,0.00,,,0.00,weatherlink.com 1.10,2013-06-05 18:00:00,
2013-06-05 14:15:00,76.0,58.0,29.99,East,79,7.0,14.0,53,0.00,,,0.00,weatherlink.com 1.10,2013-06-05 18:15:00,
2013-06-05 14:32:00,76.5,56.0,29.99,ESE,117,5.0,13.0,49,0.00,,,0.00,weatherlink.com 1.10,2013-06-05 18:32:00,
2013-06-05 14:46:00,75.9,55.0,29.98,ESE,108,2.0,15.0,49,0.00,,,0.00,weatherlink.com 1.10,2013-06-05 18:46:00,
2013-06-05 15:02:00,77.2,58.0,29.98,SE,144,4.0,12.0,52,0.00,,,0.00,weatherlink.com 1.10,2013-06-05 19:02:00,
2013-06-05 15:17:00,77.6,58.0,29.97,ENE,67,4.0,9.0,51,0.00,,,0.00,weatherlink.com 1.10,2013-06-05 19:17:00,
2013-06-05 15:32:00,78.2,57.0,29.96,ENE,60,1.0,11.0,48,0.00,,,0.00,weatherlink.com 1.10,2013-06-05 19:32:00,
2013-06-05 15:47:00,78.4,58.0,29.95,NE,45,7.0,10.0,50,0.00,,,0.00,weatherlink.com 1.10,2013-06-05 19:47:00,
2013-06-05 16:02:00,78.5,55.0,29.95,SE,130,5.0,7.0,44,0.00,,,0.00,weatherlink.com 1.10,2013-06-05 20:02:00,
2013-06-05 16:18:00,78.6,55.0,29.94,SSE,150,3.0,9.0,45,0.00,,,0.00,weatherlink.com 1.10,2013-06-05 20:18:00,
2013-06-05 16:33:00,77.6,58.0,29.94,ESE,115,4.0,6.0,51,0.00,,,0.00,weatherlink.com 1.10,2013-06-05 20:33:00,
2013-06-05 16:48:00,78.6,56.0,29.94,SE,124,2.0,8.0,46,0.00,,,0.00,weatherlink.com 1.10,2013-06-05 20:48:00,
2013-06-05 17:03:00,78.2,55.0,29.93,SE,146,4.0,9.0,45,0.00,,,0.00,weatherlink.com 1.10,2013-06-05 21:03:00,
2013-06-05 17:18:00,78.3,56.0,29.93,East,82,3.0,9.0,46,0.00,,,0.00,weatherlink.com 1.10,2013-06-05 21:18:00,
2013-06-05 17:34:00,78.7,56.0,29.92,ESE,117,0.0,5.0,46,0.00,,,0.00,weatherlink.com 1.10,2013-06-05 21:34:00,
2013-06-05 17:49:00,79.6,56.0,29.91,NE,49,5.0,11.0,45,0.00,,,0.00,weatherlink.com 1.10,2013-06-05 21:49:00,
2013-06-05 18:04:00,80.1,56.0,29.91,East,92,5.0,9.0,43,0.00,,,0.00,weatherlink.com 1.10,2013-06-05 22:04:00,
2013-06-05 18:21:00,79.2,56.0,29.90,NE,50,3.0,7.0,45,0.00,,,0.00,weatherlink.com 1.10,2013-06-05 22:21:00,
2013-06-05 18:35:00,79.6,57.0,29.90,SE,138,3.0,8.0,46,0.00,,,0.00,weatherlink.com 1.10,2013-06-05 22:35:00,
2013-06-05 18:51:00,79.5,56.0,29.89,ENE,65,5.0,11.0,44,0.00,,,0.00,weatherlink.com 1.10,2013-06-05 22:51:00,
2013-06-05 19:05:00,80.7,57.0,29.89,East,87,5.0,9.0,45,0.00,,,0.00,weatherlink.com 1.10,2013-06-05 23:05:00,
2013-06-05 19:20:00,79.6,57.0,29.89,ENE,76,7.0,11.0,46,0.00,,,0.00,weatherlink.com 1.10,2013-06-05 23:20:00,
2013-06-05 19:37:00,78.9,56.0,29.89,ENE,61,3.0,10.0,46,0.00,,,0.00,weatherlink.com 1.10,2013-06-05 23:37:00,
2013-06-05 19:52:00,78.9,56.0,29.89,ENE,74,4.0,9.0,45,0.00,,,0.00,weatherlink.com 1.10,2013-06-05 23:52:00,
2013-06-05 20:07:00,78.7,56.0,29.89,NNE,13,3.0,10.0,45,0.00,,,0.00,weatherlink.com 1.10,2013-06-06 00:07:00,
2013-06-05 20:22:00,77.8,55.0,29.89,NNE,31,1.0,10.0,46,0.00,,,0.00,weatherlink.com 1.10,2013-06-06 00:22:00,
2013-06-05 20:37:00,76.2,54.0,29.89,ENE,69,4.0,12.0,47,0.00,,,0.00,weatherlink.com 1.10,2013-06-06 00:37:00,
2013-06-05 20:52:00,73.7,55.0,29.89,ENE,74,8.0,20.0,52,0.00,,,0.00,weatherlink.com 1.10,2013-06-06 00:52:00,
2013-06-05 21:07:00,71.6,54.0,29.90,ENE,58,11.0,17.0,54,0.00,,,0.00,weatherlink.com 1.10,2013-06-06 01:07:00,
2013-06-05 21:23:00,70.2,54.0,29.90,East,79,13.0,16.0,56,0.00,,,0.00,weatherlink.com 1.10,2013-06-06 01:23:00,
2013-06-05 21:38:00,69.2,53.0,29.90,ENE,60,8.0,16.0,56,0.00,,,0.00,weatherlink.com 1.10,2013-06-06 01:38:00,
2013-06-05 21:53:00,68.2,53.0,29.90,ENE,57,10.0,16.0,58,0.00,,,0.00,weatherlink.com 1.10,2013-06-06 01:53:00,
2013-06-05 22:08:00,67.5,52.0,29.91,ENE,61,5.0,14.0,58,0.00,,,0.00,weatherlink.com 1.10,2013-06-06 02:08:00,
2013-06-05 22:24:00,66.8,50.0,29.91,ENE,70,5.0,14.0,56,0.00,,,0.00,weatherlink.com 1.10,2013-06-06 02:24:00,
2013-06-05 22:39:00,66.1,50.0,29.91,ENE,69,4.0,13.0,56,0.00,,,0.00,weatherlink.com 1.10,2013-06-06 02:39:00,
2013-06-05 22:54:00,65.4,50.0,29.92,East,82,7.0,13.0,57,0.00,,,0.00,weatherlink.com 1.10,2013-06-06 02:54:00,
2013-06-05 23:09:00,64.8,49.0,29.92,NE,51,5.0,11.0,58,0.00,,,0.00,weatherlink.com 1.10,2013-06-06 03:09:00,
2013-06-05 23:25:00,64.1,49.0,29.92,East,87,8.0,11.0,59,0.00,,,0.00,weatherlink.com 1.10,2013-06-06 03:25:00,
2013-06-05 23:40:00,63.9,48.0,29.91,ENE,67,9.0,14.0,57,0.00,,,0.00,weatherlink.com 1.10,2013-06-06 03:40:00,
2013-06-05 23:55:00,63.4,48.0,29.91,ENE,67,4.0,10.0,58,0.00,,,0.00,weatherlink.com 1.10,2013-06-06 03:55:00,